Wetterdaten: Donnerstag, 17.06.2010
Datum Zeit Temp. A. Feuchte A. Luftdruck Regen Wind Richtung Richtung Sonnenschein UV Solar Windben
17.06.2010 00:00 13,5 C 69 % 1020,1 hPa 0,0 mm 0,3 km/h (0 Bft) O-NO 72 0 min 0 UV-I 0 W/m 3,2 km/h (1 Bft)
17.06.2010 00:10 13,1 C 69 % 1020,0 hPa 0,0 mm 0,1 km/h (0 Bft) O-NO 72 0 min 0 UV-I 0 W/m 3,2 km/h (1 Bft)
17.06.2010 00:20 12,8 C 71 % 1020,0 hPa 0,0 mm 0,0 km/h (0 Bft) O-NO 72 0 min 0 UV-I 0 W/m 1,6 km/h (1 Bft)
17.06.2010 00:30 12,7 C 73 % 1020,0 hPa 0,0 mm 0,0 km/h (0 Bft) N 0 0 min 0 UV-I 0 W/m 0,0 km/h (0 Bft)
17.06.2010 00:40 12,6 C 72 % 1019,9 hPa 0,0 mm 0,0 km/h (0 Bft) O-NO 67 0 min 0 UV-I 0 W/m 1,6 km/h (1 Bft)
17.06.2010 00:50 12,4 C 73 % 1020,0 hPa 0,0 mm 0,0 km/h (0 Bft) N 0 0 min 0 UV-I 0 W/m 0,0 km/h (0 Bft)
17.06.2010 01:00 12,3 C 74 % 1020,0 hPa 0,0 mm 0,0 km/h (0 Bft) N 0 0 min 0 UV-I 0 W/m 0,0 km/h (0 Bft)
17.06.2010 01:10 12,2 C 75 % 1020,0 hPa 0,0 mm 0,0 km/h (0 Bft) N 0 0 min 0 UV-I 0 W/m 0,0 km/h (0 Bft)
17.06.2010 01:20 11,9 C 76 % 1020,1 hPa 0,0 mm 0,0 km/h (0 Bft) N 0 0 min 0 UV-I 0 W/m 0,0 km/h (0 Bft)
17.06.2010 01:30 11,8 C 77 % 1020,1 hPa 0,0 mm 0,0 km/h (0 Bft) N 0 0 min 0 UV-I 0 W/m 0,0 km/h (0 Bft)
17.06.2010 01:40 11,6 C 78 % 1020,0 hPa 0,0 mm 0,0 km/h (0 Bft) N 0 0 min 0 UV-I 0 W/m 0,0 km/h (0 Bft)
17.06.2010 01:50 11,4 C 78 % 1020,0 hPa 0,0 mm 0,0 km/h (0 Bft) O-NO 67 0 min 0 UV-I 0 W/m 1,6 km/h (1 Bft)
17.06.2010 02:00 11,2 C 78 % 1019,8 hPa 0,0 mm 0,0 km/h (0 Bft) O-NO 67 0 min 0 UV-I 0 W/m 1,6 km/h (1 Bft)
17.06.2010 02:10 11,1 C 77 % 1019,7 hPa 0,0 mm 0,0 km/h (0 Bft) O-NO 67 0 min 0 UV-I 0 W/m 1,6 km/h (1 Bft)
17.06.2010 02:20 11,2 C 77 % 1019,7 hPa 0,0 mm 0,0 km/h (0 Bft) O-NO 67 0 min 0 UV-I 0 W/m 1,6 km/h (1 Bft)
17.06.2010 02:30 11,3 C 75 % 1019,6 hPa 0,0 mm 0,0 km/h (0 Bft) O-NO 67 0 min 0 UV-I 0 W/m 1,6 km/h (1 Bft)
17.06.2010 02:40 11,4 C 76 % 1019,6 hPa 0,0 mm 0,0 km/h (0 Bft) O-NO 67 0 min 0 UV-I 0 W/m 1,6 km/h (1 Bft)
17.06.2010 02:50 11,3 C 77 % 1019,5 hPa 0,0 mm 0,0 km/h (0 Bft) N 0 0 min 0 UV-I 0 W/m 0,0 km/h (0 Bft)
17.06.2010 03:00 11,2 C 78 % 1019,5 hPa 0,0 mm 0,0 km/h (0 Bft) N 0 0 min 0 UV-I 0 W/m 0,0 km/h (0 Bft)
17.06.2010 03:10 10,9 C 78 % 1019,4 hPa 0,0 mm 0,0 km/h (0 Bft) N 0 0 min 0 UV-I 0 W/m 0,0 km/h (0 Bft)
17.06.2010 03:20 10,7 C 78 % 1019,4 hPa 0,0 mm 0,0 km/h (0 Bft) N 0 0 min 0 UV-I 0 W/m 0,0 km/h (0 Bft)
17.06.2010 03:30 10,7 C 78 % 1019,4 hPa 0,0 mm 0,0 km/h (0 Bft) O-NO 67 0 min 0 UV-I 0 W/m 1,6 km/h (1 Bft)
17.06.2010 03:40 10,7 C 79 % 1019,4 hPa 0,0 mm 0,0 km/h (0 Bft) O-NO 67 0 min 0 UV-I 0 W/m 1,6 km/h (1 Bft)
17.06.2010 03:50 10,7 C 78 % 1019,4 hPa 0,0 mm 0,0 km/h (0 Bft) O-NO 67 0 min 0 UV-I 0 W/m 1,6 km/h (1 Bft)
17.06.2010 04:00 10,7 C 78 % 1019,4 hPa 0,0 mm 0,0 km/h (0 Bft) N 0 0 min 0 UV-I 0 W/m 0,0 km/h (0 Bft)
17.06.2010 04:10 10,6 C 79 % 1019,4 hPa 0,0 mm 0,0 km/h (0 Bft) O-NO 67 0 min 0 UV-I 0 W/m 1,6 km/h (1 Bft)
17.06.2010 04:20 10,4 C 79 % 1019,3 hPa 0,0 mm 0,0 km/h (0 Bft) O-NO 67 0 min 0 UV-I 0 W/m 1,6 km/h (1 Bft)
17.06.2010 04:30 10,3 C 80 % 1019,4 hPa 0,0 mm 0,0 km/h (0 Bft) O-NO 67 0 min 0 UV-I 0 W/m 3,2 km/h (1 Bft)
17.06.2010 04:40 10,4 C 79 % 1019,3 hPa 0,0 mm 0,0 km/h (0 Bft) N 0 0 min 0 UV-I 0 W/m 0,0 km/h (0 Bft)
17.06.2010 04:50 10,3 C 79 % 1019,3 hPa 0,0 mm 0,0 km/h (0 Bft) O-NO 67 0 min 0 UV-I 0 W/m 1,6 km/h (1 Bft)
17.06.2010 05:00 10,2 C 80 % 1019,2 hPa 0,0 mm 0,0 km/h (0 Bft) O-NO 67 0 min 0 UV-I 0 W/m 1,6 km/h (1 Bft)
17.06.2010 05:10 10,2 C 80 % 1019,2 hPa 0,0 mm 0,0 km/h (0 Bft) O-NO 67 0 min 0 UV-I 0 W/m 1,6 km/h (1 Bft)
17.06.2010 05:20 10,1 C 80 % 1019,2 hPa 0,0 mm 0,0 km/h (0 Bft) O-NO 67 0 min 0 UV-I 7 W/m 3,2 km/h (1 Bft)
17.06.2010 05:30 10,1 C 80 % 1019,3 hPa 0,0 mm 0,0 km/h (0 Bft) O-NO 67 0 min 0 UV-I 11 W/m 1,6 km/h (1 Bft)
17.06.2010 05:40 10,1 C 80 % 1019,3 hPa 0,0 mm 0,0 km/h (0 Bft) O-NO 67 0 min 0 UV-I 14 W/m 1,6 km/h (1 Bft)
17.06.2010 05:50 10,2 C 81 % 1019,2 hPa 0,0 mm 0,0 km/h (0 Bft) O-NO 67 0 min 0 UV-I 16 W/m 1,6 km/h (1 Bft)
17.06.2010 06:00 10,3 C 80 % 1019,3 hPa 0,0 mm 0,0 km/h (0 Bft) O-NO 67 0 min 0 UV-I 19 W/m 3,2 km/h (1 Bft)
17.06.2010 06:10 10,4 C 80 % 1019,3 hPa 0,0 mm 0,0 km/h (0 Bft) O 90 0 min 0 UV-I 23 W/m 4,8 km/h (1 Bft)
17.06.2010 06:20 10,8 C 79 % 1019,2 hPa 0,0 mm 0,0 km/h (0 Bft) O 90 10 min 0 UV-I 97 W/m 3,2 km/h (1 Bft)
17.06.2010 06:30 11,3 C 78 % 1019,2 hPa 0,0 mm 1,6 km/h (1 Bft) O 90 10 min 0 UV-I 116 W/m 8,0 km/h (2 Bft)
17.06.2010 06:40 11,8 C 76 % 1019,2 hPa 0,0 mm 1,6 km/h (1 Bft) O 90 10 min 1 UV-I 139 W/m 8,0 km/h (2 Bft)
17.06.2010 06:50 12,3 C 75 % 1019,2 hPa 0,0 mm 1,6 km/h (1 Bft) O 90 10 min 1 UV-I 160 W/m 4,8 km/h (1 Bft)
17.06.2010 07:00 12,8 C 74 % 1019,1 hPa 0,0 mm 1,6 km/h (1 Bft) O 90 10 min 1 UV-I 185 W/m 8,0 km/h (2 Bft)
17.06.2010 07:10 13,3 C 72 % 1019,2 hPa 0,0 mm 1,6 km/h (1 Bft) O 90 10 min 1 UV-I 211 W/m 8,0 km/h (2 Bft)
17.06.2010 07:20 13,8 C 71 % 1019,1 hPa 0,0 mm 1,6 km/h (1 Bft) O-NO 67 10 min 1 UV-I 236 W/m 6,4 km/h (2 Bft)
17.06.2010 07:30 14,4 C 69 % 1019,0 hPa 0,0 mm 1,6 km/h (1 Bft) O 90 10 min 1 UV-I 264 W/m 8,0 km/h (2 Bft)
17.06.2010 07:40 14,9 C 68 % 1019,1 hPa 0,0 mm 1,6 km/h (1 Bft) O 90 10 min 1 UV-I 294 W/m 8,0 km/h (2 Bft)
17.06.2010 07:50 15,6 C 66 % 1019,0 hPa 0,0 mm 1,6 km/h (1 Bft) O-SO 112 10 min 1 UV-I 322 W/m 8,0 km/h (2 Bft)
17.06.2010 08:00 16,3 C 64 % 1019,1 hPa 0,0 mm 1,0 km/h (0 Bft) NO 50 10 min 1 UV-I 349 W/m 3,2 km/h (1 Bft)
17.06.2010 08:10 16,5 C 64 % 1019,0 hPa 0,0 mm 3,2 km/h (1 Bft) NO 45 10 min 2 UV-I 381 W/m 9,7 km/h (2 Bft)
17.06.2010 08:20 16,9 C 61 % 1019,0 hPa 0,0 mm 1,6 km/h (1 Bft) O-NO 67 10 min 2 UV-I 394 W/m 12,9 km/h (3 Bft)
17.06.2010 08:30 17,4 C 58 % 1018,9 hPa 0,0 mm 4,8 km/h (1 Bft) O-NO 67 10 min 2 UV-I 434 W/m 9,7 km/h (2 Bft)
17.06.2010 08:40 17,7 C 56 % 1018,9 hPa 0,0 mm 4,8 km/h (1 Bft) O 90 10 min 2 UV-I 476 W/m 12,9 km/h (3 Bft)
17.06.2010 08:50 17,9 C 57 % 1018,8 hPa 0,0 mm 4,8 km/h (1 Bft) O 90 10 min 2 UV-I 496 W/m 16,1 km/h (3 Bft)
17.06.2010 09:00 18,3 C 56 % 1018,9 hPa 0,0 mm 4,8 km/h (1 Bft) O 90 10 min 3 UV-I 510 W/m 12,9 km/h (3 Bft)
17.06.2010 09:10 18,7 C 55 % 1018,8 hPa 0,0 mm 3,2 km/h (1 Bft) O 90 10 min 3 UV-I 554 W/m 11,3 km/h (2 Bft)
17.06.2010 09:20 19,2 C 53 % 1018,9 hPa 0,0 mm 6,4 km/h (2 Bft) O 90 10 min 3 UV-I 589 W/m 14,5 km/h (3 Bft)
17.06.2010 09:30 19,1 C 52 % 1018,9 hPa 0,0 mm 6,4 km/h (2 Bft) O 90 10 min 3 UV-I 589 W/m 16,1 km/h (3 Bft)
17.06.2010 09:40 19,2 C 50 % 1018,9 hPa 0,0 mm 6,4 km/h (2 Bft) O 90 10 min 3 UV-I 621 W/m 16,1 km/h (3 Bft)
17.06.2010 09:50 19,2 C 53 % 1018,9 hPa 0,0 mm 6,4 km/h (2 Bft) O 90 10 min 3 UV-I 543 W/m 19,3 km/h (3 Bft)
17.06.2010 10:00 19,2 C 53 % 1018,8 hPa 0,0 mm 8,0 km/h (2 Bft) O 90 10 min 4 UV-I 612 W/m 17,7 km/h (3 Bft)
17.06.2010 10:10 19,6 C 51 % 1018,6 hPa 0,0 mm 6,4 km/h (2 Bft) O-NO 67 10 min 4 UV-I 729 W/m 16,1 km/h (3 Bft)
17.06.2010 10:20 20,2 C 50 % 1018,7 hPa 0,0 mm 6,4 km/h (2 Bft) O 90 10 min 5 UV-I 772 W/m 16,1 km/h (3 Bft)
17.06.2010 10:30 20,8 C 51 % 1018,6 hPa 0,0 mm 8,0 km/h (2 Bft) O 90 10 min 5 UV-I 793 W/m 17,7 km/h (3 Bft)
17.06.2010 10:40 21,1 C 49 % 1018,6 hPa 0,0 mm 8,0 km/h (2 Bft) O 90 10 min 5 UV-I 809 W/m 24,1 km/h (4 Bft)
17.06.2010 10:50 21,2 C 47 % 1018,4 hPa 0,0 mm 6,4 km/h (2 Bft) O-NO 67 10 min 6 UV-I 830 W/m 16,1 km/h (3 Bft)
17.06.2010 11:00 21,2 C 46 % 1018,5 hPa 0,0 mm 8,0 km/h (2 Bft) O-NO 67 10 min 6 UV-I 842 W/m 16,1 km/h (3 Bft)
17.06.2010 11:10 21,5 C 45 % 1018,4 hPa 0,0 mm 8,0 km/h (2 Bft) O 90 10 min 6 UV-I 861 W/m 24,1 km/h (4 Bft)
17.06.2010 11:20 21,7 C 46 % 1018,2 hPa 0,0 mm 4,8 km/h (1 Bft) O-NO 67 10 min 6 UV-I 863 W/m 14,5 km/h (3 Bft)
17.06.2010 11:30 21,8 C 48 % 1018,1 hPa 0,0 mm 8,0 km/h (2 Bft) O 90 10 min 6 UV-I 860 W/m 20,9 km/h (4 Bft)
17.06.2010 11:40 22,2 C 44 % 1018,0 hPa 0,0 mm 6,4 km/h (2 Bft) O 90 10 min 7 UV-I 853 W/m 16,1 km/h (3 Bft)
17.06.2010 11:50 22,3 C 45 % 1017,8 hPa 0,0 mm 8,0 km/h (2 Bft) O 90 10 min 7 UV-I 891 W/m 19,3 km/h (3 Bft)
17.06.2010 12:00 22,2 C 45 % 1017,9 hPa 0,0 mm 8,0 km/h (2 Bft) O-NO 67 10 min 7 UV-I 884 W/m 20,9 km/h (4 Bft)
17.06.2010 12:10 22,1 C 46 % 1017,8 hPa 0,0 mm 8,0 km/h (2 Bft) O 90 10 min 7 UV-I 925 W/m 17,7 km/h (3 Bft)
17.06.2010 12:20 22,9 C 43 % 1017,8 hPa 0,0 mm 8,0 km/h (2 Bft) O 90 10 min 7 UV-I 909 W/m 20,9 km/h (4 Bft)
17.06.2010 12:30 22,7 C 45 % 1017,6 hPa 0,0 mm 6,4 km/h (2 Bft) O 90 10 min 7 UV-I 891 W/m 19,3 km/h (3 Bft)
17.06.2010 12:40 22,7 C 44 % 1017,6 hPa 0,0 mm 8,0 km/h (2 Bft) O 90 10 min 7 UV-I 874 W/m 27,4 km/h (4 Bft)
17.06.2010 12:50 22,5 C 45 % 1017,5 hPa 0,0 mm 8,0 km/h (2 Bft) O 90 10 min 7 UV-I 851 W/m 19,3 km/h (3 Bft)
17.06.2010 13:00 22,4 C 44 % 1017,3 hPa 0,0 mm 9,7 km/h (2 Bft) O 90 10 min 7 UV-I 889 W/m 20,9 km/h (4 Bft)
17.06.2010 13:10 22,9 C 44 % 1017,4 hPa 0,0 mm 4,8 km/h (1 Bft) O 90 10 min 8 UV-I 958 W/m 19,3 km/h (3 Bft)
17.06.2010 13:20 23,4 C 43 % 1017,3 hPa 0,0 mm 6,4 km/h (2 Bft) O-NO 67 10 min 8 UV-I 1000 W/m 19,3 km/h (3 Bft)
17.06.2010 13:30 23,3 C 44 % 1017,2 hPa 0,0 mm 8,0 km/h (2 Bft) O 90 10 min 8 UV-I 974 W/m 20,9 km/h (4 Bft)
17.06.2010 13:40 22,8 C 43 % 1017,2 hPa 0,0 mm 8,0 km/h (2 Bft) O-NO 67 10 min 7 UV-I 802 W/m 17,7 km/h (3 Bft)
17.06.2010 13:50 23,2 C 44 % 1017,0 hPa 0,0 mm 8,0 km/h (2 Bft) O 90 10 min 8 UV-I 933 W/m 25,7 km/h (4 Bft)
17.06.2010 14:00 23,8 C 40 % 1016,9 hPa 0,0 mm 6,4 km/h (2 Bft) O 90 10 min 8 UV-I 979 W/m 19,3 km/h (3 Bft)
17.06.2010 14:10 24,0 C 42 % 1016,9 hPa 0,0 mm 6,4 km/h (2 Bft) O-NO 67 10 min 8 UV-I 963 W/m 24,1 km/h (4 Bft)
17.06.2010 14:20 24,3 C 39 % 1016,8 hPa 0,0 mm 8,0 km/h (2 Bft) O 90 10 min 8 UV-I 974 W/m 22,5 km/h (4 Bft)
17.06.2010 14:30 24,3 C 41 % 1016,8 hPa 0,0 mm 8,0 km/h (2 Bft) O 90 10 min 8 UV-I 1000 W/m 20,9 km/h (4 Bft)
17.06.2010 14:40 24,9 C 38 % 1016,7 hPa 0,0 mm 8,0 km/h (2 Bft) O 90 10 min 7 UV-I 977 W/m 17,7 km/h (3 Bft)
17.06.2010 14:50 24,6 C 39 % 1016,7 hPa 0,0 mm 8,0 km/h (2 Bft) O-NO 67 10 min 7 UV-I 956 W/m 19,3 km/h (3 Bft)
17.06.2010 15:00 24,8 C 39 % 1016,6 hPa 0,0 mm 8,0 km/h (2 Bft) O-NO 67 10 min 7 UV-I 914 W/m 22,5 km/h (4 Bft)
17.06.2010 15:10 24,8 C 39 % 1016,5 hPa 0,0 mm 8,0 km/h (2 Bft) O 90 10 min 7 UV-I 960 W/m 17,7 km/h (3 Bft)
17.06.2010 15:20 24,7 C 42 % 1016,5 hPa 0,0 mm 8,0 km/h (2 Bft) O-NO 67 10 min 7 UV-I 958 W/m 20,9 km/h (4 Bft)
17.06.2010 15:30 25,2 C 38 % 1016,6 hPa 0,0 mm 6,4 km/h (2 Bft) O 90 10 min 6 UV-I 921 W/m 20,9 km/h (4 Bft)
17.06.2010 15:40 25,1 C 42 % 1016,3 hPa 0,0 mm 4,8 km/h (1 Bft) O 90 10 min 5 UV-I 752 W/m 19,3 km/h (3 Bft)
17.06.2010 15:50 24,7 C 43 % 1016,3 hPa 0,0 mm 6,4 km/h (2 Bft) O-NO 67 10 min 5 UV-I 744 W/m 16,1 km/h (3 Bft)
17.06.2010 16:00 25,2 C 41 % 1016,1 hPa 0,0 mm 4,2 km/h (1 Bft) N 5 10 min 5 UV-I 837 W/m 11,3 km/h (2 Bft)
17.06.2010 16:10 25,2 C 42 % 1015,9 hPa 0,0 mm 4,8 km/h (1 Bft) O 90 10 min 5 UV-I 786 W/m 17,7 km/h (3 Bft)
17.06.2010 16:20 25,4 C 38 % 1015,8 hPa 0,0 mm 6,4 km/h (2 Bft) O-SO 112 10 min 5 UV-I 803 W/m 16,1 km/h (3 Bft)
17.06.2010 16:30 25,6 C 40 % 1015,8 hPa 0,0 mm 8,0 km/h (2 Bft) O 90 10 min 5 UV-I 779 W/m 22,5 km/h (4 Bft)
17.06.2010 16:40 25,3 C 40 % 1015,7 hPa 0,0 mm 6,4 km/h (2 Bft) O 90 10 min 4 UV-I 707 W/m 14,5 km/h (3 Bft)
17.06.2010 16:50 25,1 C 38 % 1015,6 hPa 0,0 mm 4,8 km/h (1 Bft) O 90 10 min 4 UV-I 643 W/m 14,5 km/h (3 Bft)
17.06.2010 17:00 25,0 C 40 % 1015,6 hPa 0,0 mm 4,8 km/h (1 Bft) O-NO 67 10 min 4 UV-I 698 W/m 16,1 km/h (3 Bft)
17.06.2010 17:10 25,2 C 39 % 1015,4 hPa 0,0 mm 6,4 km/h (2 Bft) O 90 10 min 4 UV-I 703 W/m 19,3 km/h (3 Bft)
17.06.2010 17:20 25,6 C 40 % 1015,3 hPa 0,0 mm 8,0 km/h (2 Bft) O 90 10 min 3 UV-I 717 W/m 17,7 km/h (3 Bft)
17.06.2010 17:30 25,8 C 40 % 1015,2 hPa 0,0 mm 4,8 km/h (1 Bft) O 90 10 min 3 UV-I 664 W/m 14,5 km/h (3 Bft)
17.06.2010 17:40 25,3 C 40 % 1015,0 hPa 0,0 mm 6,4 km/h (2 Bft) O 90 10 min 3 UV-I 584 W/m 24,1 km/h (4 Bft)
17.06.2010 17:50 25,2 C 41 % 1015,0 hPa 0,0 mm 6,4 km/h (2 Bft) O 90 10 min 3 UV-I 577 W/m 19,3 km/h (3 Bft)
17.06.2010 18:00 25,1 C 42 % 1014,9 hPa 0,0 mm 4,8 km/h (1 Bft) O 90 10 min 2 UV-I 543 W/m 14,5 km/h (3 Bft)
17.06.2010 18:10 25,2 C 42 % 1014,8 hPa 0,0 mm 6,4 km/h (2 Bft) O 90 10 min 2 UV-I 587 W/m 16,1 km/h (3 Bft)
17.06.2010 18:20 25,3 C 39 % 1014,7 hPa 0,0 mm 6,4 km/h (2 Bft) O-NO 67 10 min 2 UV-I 550 W/m 14,5 km/h (3 Bft)
17.06.2010 18:30 25,3 C 41 % 1014,7 hPa 0,0 mm 4,8 km/h (1 Bft) O-NO 67 10 min 2 UV-I 529 W/m 16,1 km/h (3 Bft)
17.06.2010 18:40 25,0 C 41 % 1014,6 hPa 0,0 mm 6,4 km/h (2 Bft) O-SO 112 10 min 2 UV-I 418 W/m 20,9 km/h (4 Bft)
17.06.2010 18:50 24,7 C 41 % 1014,6 hPa 0,0 mm 4,8 km/h (1 Bft) O-NO 67 10 min 1 UV-I 413 W/m 12,9 km/h (3 Bft)
17.06.2010 19:00 24,8 C 40 % 1014,5 hPa 0,0 mm 4,8 km/h (1 Bft) NO 45 10 min 1 UV-I 413 W/m 16,1 km/h (3 Bft)
17.06.2010 19:10 24,6 C 41 % 1014,5 hPa 0,0 mm 4,8 km/h (1 Bft) O-NO 67 10 min 1 UV-I 381 W/m 17,7 km/h (3 Bft)
17.06.2010 19:20 24,4 C 41 % 1014,4 hPa 0,0 mm 6,4 km/h (2 Bft) O-NO 67 10 min 1 UV-I 355 W/m 16,1 km/h (3 Bft)
17.06.2010 19:30 24,3 C 41 % 1014,4 hPa 0,0 mm 4,8 km/h (1 Bft) O 90 10 min 1 UV-I 332 W/m 16,1 km/h (3 Bft)
17.06.2010 19:40 24,3 C 41 % 1014,4 hPa 0,0 mm 4,8 km/h (1 Bft) O 90 10 min 1 UV-I 301 W/m 14,5 km/h (3 Bft)
17.06.2010 19:50 24,2 C 41 % 1014,2 hPa 0,0 mm 3,2 km/h (1 Bft) O-NO 67 10 min 1 UV-I 271 W/m 14,5 km/h (3 Bft)
17.06.2010 20:00 23,9 C 43 % 1014,2 hPa 0,0 mm 3,2 km/h (1 Bft) NO 45 10 min 1 UV-I 239 W/m 11,3 km/h (2 Bft)
17.06.2010 20:10 23,7 C 42 % 1014,2 hPa 0,0 mm 3,2 km/h (1 Bft) O-NO 67 10 min 1 UV-I 214 W/m 11,3 km/h (2 Bft)
17.06.2010 20:20 22,9 C 43 % 1014,1 hPa 0,0 mm 4,8 km/h (1 Bft) NO 45 10 min 1 UV-I 183 W/m 16,1 km/h (3 Bft)
17.06.2010 20:30 22,2 C 44 % 1014,1 hPa 0,0 mm 3,2 km/h (1 Bft) O-NO 67 0 min 0 UV-I 44 W/m 14,5 km/h (3 Bft)
17.06.2010 20:40 21,7 C 46 % 1014,1 hPa 0,0 mm 1,6 km/h (1 Bft) O-NO 67 0 min 0 UV-I 39 W/m 8,0 km/h (2 Bft)
17.06.2010 20:50 21,3 C 48 % 1014,1 hPa 0,0 mm 1,6 km/h (1 Bft) O-SO 112 0 min 0 UV-I 33 W/m 8,0 km/h (2 Bft)
17.06.2010 21:00 21,0 C 49 % 1014,1 hPa 0,0 mm 1,6 km/h (1 Bft) N-NO 22 0 min 0 UV-I 28 W/m 4,8 km/h (1 Bft)
17.06.2010 21:10 20,7 C 50 % 1014,1 hPa 0,0 mm 1,6 km/h (1 Bft) N-NO 22 0 min 0 UV-I 25 W/m 6,4 km/h (2 Bft)
17.06.2010 21:20 20,3 C 51 % 1014,2 hPa 0,0 mm 1,6 km/h (1 Bft) NO 45 0 min 0 UV-I 19 W/m 4,8 km/h (1 Bft)
17.06.2010 21:30 19,9 C 53 % 1014,2 hPa 0,0 mm 0,0 km/h (0 Bft) N-NO 22 10 min 0 UV-I 14 W/m 3,2 km/h (1 Bft)
17.06.2010 21:40 19,4 C 54 % 1014,3 hPa 0,0 mm 0,0 km/h (0 Bft) N-NO 22 0 min 0 UV-I 0 W/m 3,2 km/h (1 Bft)
17.06.2010 21:50 19,2 C 55 % 1014,3 hPa 0,0 mm 0,0 km/h (0 Bft) N-NO 22 0 min 0 UV-I 0 W/m 4,8 km/h (1 Bft)
17.06.2010 22:00 18,9 C 57 % 1014,3 hPa 0,0 mm 0,0 km/h (0 Bft) N-NO 22 0 min 0 UV-I 0 W/m 3,2 km/h (1 Bft)
17.06.2010 22:10 18,6 C 60 % 1014,4 hPa 0,0 mm 0,0 km/h (0 Bft) N-NO 22 0 min 0 UV-I 0 W/m 4,8 km/h (1 Bft)
17.06.2010 22:20 18,2 C 61 % 1014,4 hPa 0,0 mm 0,9 km/h (0 Bft) N-NO 24 0 min 0 UV-I 0 W/m 4,8 km/h (1 Bft)
17.06.2010 22:30 17,9 C 62 % 1014,5 hPa 0,0 mm 0,5 km/h (0 Bft) N-NO 24 0 min 0 UV-I 0 W/m 3,2 km/h (1 Bft)
17.06.2010 22:40 17,3 C 64 % 1014,6 hPa 0,0 mm 0,0 km/h (0 Bft) N-NO 24 0 min 0 UV-I 0 W/m 0,0 km/h (0 Bft)
17.06.2010 22:50 16,6 C 65 % 1014,5 hPa 0,0 mm 0,0 km/h (0 Bft) N-NO 24 0 min 0 UV-I 0 W/m 1,6 km/h (1 Bft)
17.06.2010 23:00 16,4 C 66 % 1014,5 hPa 0,0 mm 0,0 km/h (0 Bft) N-NO 22 0 min 0 UV-I 0 W/m 1,6 km/h (1 Bft)
17.06.2010 23:10 16,1 C 64 % 1014,5 hPa 0,0 mm 0,0 km/h (0 Bft) N-NO 22 0 min 0 UV-I 0 W/m 1,6 km/h (1 Bft)
17.06.2010 23:20 16,0 C 65 % 1014,5 hPa 0,0 mm 0,0 km/h (0 Bft) N 0 0 min 0 UV-I 0 W/m 0,0 km/h (0 Bft)
17.06.2010 23:30 15,9 C 66 % 1014,5 hPa 0,0 mm 0,0 km/h (0 Bft) N-NO 22 0 min 0 UV-I 0 W/m 1,6 km/h (1 Bft)
17.06.2010 23:40 15,7 C 66 % 1014,4 hPa 0,0 mm 0,0 km/h (0 Bft) N-NO 22 0 min 0 UV-I 0 W/m 1,6 km/h (1 Bft)
17.06.2010 23:50 15,5 C 69 % 1014,4 hPa 0,0 mm 0,0 km/h (0 Bft) N-NO 22 0 min 0 UV-I 0 W/m 1,6 km/h (1 Bft)
_ Min-Zeit 05:20 14:40 20:20 - 00:20 - - - - - 00:30
Minimum _ 10,0 C 38 % 1014,1 hPa - 0,0 km/h (0 Bft) - - - - - 0,0 km/h (0 Bft)
_ Max-Zeit 16:30 05:50 00:00 00:00 13:00 - - 06:20 13:10 13:20 12:40
Maximum _ 25,9 C 81 % 1020,1 hPa 0,0 mm 9,7 km/h
O (2 Bft)
- - 10 min 8 UV-I 1000 W/m 27,4 km/h
NW (4 Bft)
Durchschnitt _ 18,4 C 57 % 1017,3 hPa #0,0 mm 3,4 km/h (1 Bft) O - #14:20 h 4 UV-I 553 W/m 10,5 km/h (2 Bft)